createdAt,value
2019-04-07T00:01:48.672Z,99.90
2019-04-07T00:04:17.881Z,99.90
2019-04-07T00:06:47.666Z,99.90
2019-04-07T00:09:17.592Z,99.90
2019-04-07T00:11:53.992Z,99.90
2019-04-07T00:14:25.245Z,99.90
2019-04-07T00:16:55.955Z,99.90
2019-04-07T00:19:25.193Z,99.90
2019-04-07T00:21:59.349Z,99.90
2019-04-07T00:24:31.847Z,99.90
2019-04-07T00:27:02.597Z,99.90
2019-04-07T00:29:31.945Z,99.90
2019-04-07T00:32:04.741Z,99.90
2019-04-07T00:34:33.918Z,99.90
2019-04-07T00:37:03.246Z,99.90
2019-04-07T00:39:32.585Z,99.90
2019-04-07T00:42:07.190Z,99.90
2019-04-07T00:44:36.585Z,99.90
2019-04-07T00:47:06.319Z,99.90
2019-04-07T00:49:37.819Z,99.90
2019-04-07T00:52:10.830Z,99.90
2019-04-07T00:54:40.838Z,99.90
2019-04-07T00:57:09.874Z,99.90
2019-04-07T00:59:39.693Z,99.90
2019-04-07T01:02:09.072Z,99.90
2019-04-07T01:04:41.848Z,99.90
2019-04-07T01:07:11.402Z,99.90
2019-04-07T01:09:40.699Z,99.90
2019-04-07T01:12:10.322Z,99.90
2019-04-07T01:14:42.177Z,99.90
2019-04-07T01:17:11.540Z,99.90
2019-04-07T01:19:40.913Z,99.90
2019-04-07T01:22:10.068Z,99.90
2019-04-07T01:24:39.488Z,99.90
2019-04-07T01:27:09.175Z,99.90
2019-04-07T01:29:38.771Z,99.90
2019-04-07T01:32:08.751Z,99.90
2019-04-07T01:34:38.274Z,99.90
2019-04-07T01:37:07.819Z,99.90
2019-04-07T01:39:38.281Z,99.90
2019-04-07T01:42:22.923Z,99.90
2019-04-07T01:45:10.523Z,99.90
2019-04-07T01:47:48.671Z,99.90
2019-04-07T01:50:39.907Z,99.90
2019-04-07T01:53:36.997Z,99.90
2019-04-07T01:56:23.200Z,99.90
2019-04-07T01:59:18.815Z,99.90
2019-04-07T02:02:20.625Z,99.90
2019-04-07T02:05:16.567Z,99.90
2019-04-07T02:08:04.561Z,99.90
2019-04-07T02:10:49.565Z,99.90
2019-04-07T02:13:40.915Z,99.90
2019-04-07T02:16:26.859Z,99.90
2019-04-07T02:19:16.213Z,99.90
2019-04-07T02:21:54.557Z,99.90
2019-04-07T02:24:31.656Z,99.90
2019-04-07T02:27:14.089Z,99.90
2019-04-07T02:29:52.817Z,99.90
2019-04-07T02:32:44.116Z,99.90
2019-04-07T02:35:26.670Z,99.90
2019-04-07T02:38:00.641Z,99.90
2019-04-07T02:40:55.733Z,99.90
2019-04-07T02:43:56.496Z,99.90
2019-04-07T02:46:44.106Z,99.90
2019-04-07T02:49:33.902Z,99.90
2019-04-07T02:52:11.755Z,99.90
2019-04-07T02:54:59.157Z,99.90
2019-04-07T02:57:43.144Z,99.90
2019-04-07T03:00:39.293Z,99.90
2019-04-07T03:03:23.588Z,99.90
2019-04-07T03:06:37.493Z,99.90
2019-04-07T03:09:15.267Z,99.90
2019-04-07T03:11:54.189Z,99.90
2019-04-07T03:14:45.553Z,99.90
2019-04-07T03:17:23.388Z,99.90
2019-04-07T03:20:06.737Z,99.90
2019-04-07T03:23:04.035Z,99.90
2019-04-07T03:25:48.562Z,99.90
2019-04-07T03:28:52.619Z,99.90
2019-04-07T03:31:45.815Z,99.90
2019-04-07T03:34:35.439Z,99.90
2019-04-07T03:37:34.452Z,99.90
2019-04-07T03:40:14.446Z,99.90
2019-04-07T03:43:07.121Z,99.90
2019-04-07T03:45:52.571Z,99.90
2019-04-07T03:48:35.376Z,99.90
2019-04-07T03:51:12.681Z,99.90
2019-04-07T03:54:10.092Z,99.90
2019-04-07T03:57:02.816Z,99.90
2019-04-07T03:59:51.371Z,99.90
2019-04-07T04:02:52.480Z,99.90
2019-04-07T04:05:32.843Z,99.90
2019-04-07T04:08:09.462Z,99.90
2019-04-07T04:10:54.201Z,99.90
2019-04-07T04:13:32.719Z,99.90
2019-04-07T04:16:06.190Z,99.90
2019-04-07T04:18:35.433Z,99.90
2019-04-07T04:21:04.791Z,99.90
2019-04-07T04:23:33.962Z,99.90
2019-04-07T04:26:04.303Z,99.90
2019-04-07T04:28:33.675Z,99.90
2019-04-07T04:31:03.283Z,99.90
2019-04-07T04:33:33.019Z,99.90
2019-04-07T04:36:02.736Z,99.90
2019-04-07T04:38:32.100Z,99.90
2019-04-07T04:41:03.012Z,99.90
2019-04-07T04:43:32.476Z,99.90
2019-04-07T04:46:01.716Z,99.90
2019-04-07T04:48:32.239Z,99.90
2019-04-07T04:51:01.507Z,99.90
2019-04-07T04:53:30.946Z,99.90
2019-04-07T04:56:00.907Z,99.90
2019-04-07T04:58:33.404Z,99.90
2019-04-07T05:01:06.455Z,99.90
2019-04-07T05:03:36.259Z,99.90
2019-04-07T05:06:05.482Z,99.90
2019-04-07T05:08:34.607Z,99.90
2019-04-07T05:11:09.762Z,99.90
2019-04-07T05:13:38.887Z,99.90
2019-04-07T05:16:08.283Z,99.90
2019-04-07T05:18:38.191Z,99.90
2019-04-07T05:21:07.438Z,99.90
2019-04-07T05:23:36.777Z,99.90
2019-04-07T05:26:06.024Z,99.90
2019-04-07T05:28:37.965Z,99.90
2019-04-07T05:31:08.890Z,99.90
2019-04-07T05:33:38.215Z,99.90
2019-04-07T05:36:08.219Z,99.90
2019-04-07T05:38:37.993Z,99.90
2019-04-07T05:41:09.977Z,99.90
2019-04-07T05:43:39.097Z,99.90
2019-04-07T05:46:09.076Z,99.90
2019-04-07T05:48:39.050Z,99.90
2019-04-07T05:51:08.797Z,99.90
2019-04-07T05:53:38.014Z,99.90
2019-04-07T05:56:09.695Z,99.90
2019-04-07T05:58:41.884Z,99.90
2019-04-07T06:01:12.902Z,99.90
2019-04-07T06:03:43.663Z,99.90
2019-04-07T06:06:13.429Z,99.90
2019-04-07T06:08:43.276Z,99.90
2019-04-07T06:11:12.579Z,99.90
2019-04-07T06:13:43.834Z,99.90
2019-04-07T06:16:12.952Z,99.90
2019-04-07T06:18:43.300Z,99.90
2019-04-07T06:21:15.288Z,99.90
2019-04-07T06:23:45.363Z,99.90
2019-04-07T06:26:17.291Z,99.90
2019-04-07T06:28:51.567Z,99.90
2019-04-07T06:31:18.371Z,99.90
2019-04-07T06:33:49.127Z,99.90
2019-04-07T06:36:21.155Z,99.90
2019-04-07T06:38:52.552Z,99.90
2019-04-07T06:41:24.284Z,99.90
2019-04-07T06:44:07.694Z,99.90
2019-04-07T06:46:52.422Z,99.90
2019-04-07T06:49:42.774Z,99.90
2019-04-07T06:52:38.699Z,99.90
2019-04-07T06:55:33.062Z,99.90
2019-04-07T06:58:19.749Z,99.90
2019-04-07T07:01:25.731Z,99.90
2019-04-07T07:04:13.136Z,99.90
2019-04-07T07:07:00.633Z,99.90
2019-04-07T07:09:48.028Z,99.90
2019-04-07T07:12:40.939Z,99.90
2019-04-07T07:15:33.726Z,99.90
2019-04-07T07:18:06.666Z,99.90
2019-04-07T07:21:01.797Z,99.90
2019-04-07T07:23:33.173Z,99.90
2019-04-07T07:26:03.325Z,99.90
2019-04-07T07:28:33.799Z,99.90
2019-04-07T07:31:03.196Z,99.90
2019-04-07T07:33:32.400Z,99.90
2019-04-07T07:36:01.424Z,99.90
2019-04-07T07:38:32.738Z,99.90
2019-04-07T07:41:03.605Z,99.90
2019-04-07T07:43:33.753Z,99.90
2019-04-07T07:46:03.222Z,99.90
2019-04-07T07:48:32.857Z,99.90
2019-04-07T07:51:03.931Z,99.90
2019-04-07T07:53:33.405Z,99.90
2019-04-07T07:56:10.723Z,99.90
2019-04-07T07:58:38.441Z,99.90
2019-04-07T08:01:12.303Z,99.90
2019-04-07T08:03:42.511Z,99.90
2019-04-07T08:06:12.194Z,99.90
2019-04-07T08:08:45.169Z,99.90
2019-04-07T08:11:15.117Z,99.90
2019-04-07T08:13:46.681Z,99.90
2019-04-07T08:16:16.363Z,99.90
2019-04-07T08:18:55.410Z,99.90
2019-04-07T08:21:25.835Z,99.90
2019-04-07T08:23:55.652Z,99.90
2019-04-07T08:26:25.872Z,99.90
2019-04-07T08:28:55.288Z,99.90
2019-04-07T08:31:25.056Z,99.90
2019-04-07T08:33:59.672Z,99.90
2019-04-07T08:36:30.171Z,99.90
2019-04-07T08:38:59.562Z,99.90
2019-04-07T08:41:32.516Z,99.90
2019-04-07T08:44:01.824Z,99.90
2019-04-07T08:46:39.871Z,99.90
2019-04-07T08:49:04.902Z,99.90
2019-04-07T08:51:36.662Z,99.90
2019-04-07T08:54:05.949Z,99.90
2019-04-07T08:56:38.742Z,99.90
2019-04-07T08:59:16.812Z,99.90
2019-04-07T09:01:47.068Z,99.90
2019-04-07T09:04:17.810Z,99.90
2019-04-07T09:06:48.750Z,99.90
2019-04-07T09:09:31.353Z,99.90
2019-04-07T09:11:57.285Z,99.90
2019-04-07T09:14:27.230Z,99.90
2019-04-07T09:17:32.107Z,99.90
2019-04-07T09:20:18.965Z,99.90
2019-04-07T09:23:09.191Z,99.90
2019-04-07T09:26:03.640Z,99.90
2019-04-07T09:28:55.826Z,99.90
2019-04-07T09:31:48.350Z,99.90
2019-04-07T09:34:26.249Z,99.90
2019-04-07T09:37:25.165Z,99.90
2019-04-07T09:40:16.487Z,99.90
2019-04-07T09:43:10.009Z,99.90
2019-04-07T09:45:59.401Z,99.90
2019-04-07T09:48:50.931Z,99.90
2019-04-07T09:51:49.539Z,99.90
2019-04-07T09:54:37.392Z,99.90
2019-04-07T09:57:17.971Z,99.90
2019-04-07T10:00:09.645Z,99.90
2019-04-07T10:03:04.987Z,99.90
2019-04-07T10:05:53.899Z,99.90
2019-04-07T10:08:38.354Z,99.90
2019-04-07T10:11:39.371Z,99.90
2019-04-07T10:14:15.967Z,99.90
2019-04-07T10:16:57.393Z,99.90
2019-04-07T10:19:48.966Z,99.90
2019-04-07T10:22:30.597Z,99.90
2019-04-07T10:25:09.310Z,99.90
2019-04-07T10:27:52.001Z,99.90
2019-04-07T10:30:48.382Z,99.90
2019-04-07T10:33:34.344Z,99.90
2019-04-07T10:36:34.689Z,99.90
2019-04-07T10:39:24.051Z,99.90
2019-04-07T10:42:15.757Z,99.90
2019-04-07T10:45:00.381Z,99.90
2019-04-07T10:47:42.504Z,99.90
2019-04-07T10:50:33.664Z,99.90
2019-04-07T10:53:20.685Z,99.90
2019-04-07T10:56:02.310Z,99.90
2019-04-07T10:58:40.433Z,99.90
2019-04-07T11:01:19.537Z,99.90
2019-04-07T11:04:16.991Z,99.90
2019-04-07T11:07:25.883Z,99.90
2019-04-07T11:10:32.990Z,99.90
2019-04-07T11:13:27.594Z,99.90
2019-04-07T11:16:18.631Z,99.90
2019-04-07T11:19:11.097Z,99.90
2019-04-07T11:22:03.152Z,99.90
2019-04-07T11:24:58.286Z,99.90
2019-04-07T11:27:48.385Z,99.90
2019-04-07T11:30:24.616Z,99.90
2019-04-07T11:33:20.862Z,99.90
2019-04-07T11:36:09.453Z,99.90
2019-04-07T11:39:05.746Z,99.90
2019-04-07T11:42:05.062Z,99.90
2019-04-07T11:45:12.648Z,99.90
2019-04-07T11:47:59.139Z,99.90
2019-04-07T11:50:54.764Z,99.90
2019-04-07T11:53:50.199Z,99.90
2019-04-07T11:56:53.449Z,99.90
2019-04-07T11:59:41.297Z,97.50
2019-04-07T12:02:29.039Z,99.90
2019-04-07T12:05:26.884Z,99.90
2019-04-07T12:08:14.053Z,99.90
2019-04-07T12:11:20.914Z,99.90
2019-04-07T12:14:28.821Z,99.90
2019-04-07T12:17:15.151Z,99.70
2019-04-07T12:19:59.154Z,99.90
2019-04-07T12:22:58.268Z,99.90
2019-04-07T12:25:51.497Z,99.90
2019-04-07T12:28:38.429Z,99.90
2019-04-07T12:31:17.432Z,97.80
2019-04-07T12:34:10.234Z,94.90
2019-04-07T12:37:06.890Z,99.90
2019-04-07T12:39:56.204Z,92.10
2019-04-07T12:42:44.652Z,98.50
2019-04-07T12:45:22.308Z,99.90
2019-04-07T12:48:19.565Z,99.90
2019-04-07T12:50:58.430Z,99.90
2019-04-07T12:53:53.772Z,99.90
2019-04-07T12:56:34.290Z,99.90
2019-04-07T12:59:21.602Z,99.90
2019-04-07T13:02:05.601Z,99.50
2019-04-07T13:05:03.829Z,99.90
2019-04-07T13:07:51.341Z,83.80
2019-04-07T13:10:30.264Z,72.20
2019-04-07T13:13:14.827Z,68.80
2019-04-07T13:16:09.179Z,98.30
2019-04-07T13:19:03.022Z,70.30
2019-04-07T13:21:57.152Z,90.60
2019-04-07T13:24:46.415Z,88.00
2019-04-07T13:27:41.574Z,60.20
2019-04-07T13:30:21.368Z,78.40
2019-04-07T13:33:20.397Z,60.20
2019-04-07T13:36:01.763Z,62.70
2019-04-07T13:38:41.414Z,57.70
2019-04-07T13:41:45.803Z,81.50
2019-04-07T13:44:19.723Z,61.90
2019-04-07T13:47:08.634Z,58.40
2019-04-07T13:49:51.523Z,92.50
2019-04-07T13:52:51.056Z,58.70
2019-04-07T13:55:42.680Z,58.30
2019-04-07T13:58:19.615Z,96.20
2019-04-07T14:01:08.465Z,87.90
2019-04-07T14:04:05.756Z,61.30
2019-04-07T14:06:58.828Z,92.90
2019-04-07T14:09:52.807Z,99.90
2019-04-07T14:12:44.373Z,94.20
2019-04-07T14:15:31.205Z,90.60
2019-04-07T14:18:22.455Z,59.60
2019-04-07T14:21:03.070Z,63.80
2019-04-07T14:23:55.699Z,56.60
2019-04-07T14:26:38.895Z,61.80
2019-04-07T14:29:28.399Z,60.50
2019-04-07T14:32:29.515Z,58.50
2019-04-07T14:35:16.580Z,66.80
2019-04-07T14:38:04.850Z,70.20
2019-04-07T14:40:56.417Z,99.90
2019-04-07T14:43:56.523Z,99.90
2019-04-07T14:46:43.802Z,72.00
2019-04-07T14:49:27.872Z,70.60
2019-04-07T14:52:11.134Z,73.00
2019-04-07T14:55:11.684Z,61.20
2019-04-07T14:57:52.458Z,62.80
2019-04-07T15:00:41.791Z,65.70
2019-04-07T15:03:12.310Z,96.50
2019-04-07T15:05:47.213Z,99.90
2019-04-07T15:08:24.764Z,90.30
2019-04-07T15:11:00.092Z,94.40
2019-04-07T15:13:34.096Z,99.90
2019-04-07T15:16:03.625Z,99.90
2019-04-07T15:18:37.127Z,67.40
2019-04-07T15:21:06.826Z,97.10
2019-04-07T15:23:36.818Z,62.80
2019-04-07T15:26:07.771Z,97.80
2019-04-07T15:28:40.423Z,94.00
2019-04-07T15:31:11.874Z,61.90
2019-04-07T15:33:42.301Z,63.70
2019-04-07T15:36:13.405Z,90.30
2019-04-07T15:38:42.949Z,89.90
2019-04-07T15:41:16.326Z,85.50
2019-04-07T15:43:44.045Z,86.50
2019-04-07T15:46:18.010Z,84.00
2019-04-07T15:48:46.574Z,65.50
2019-04-07T15:51:16.449Z,55.00
2019-04-07T15:53:51.509Z,92.20
2019-04-07T15:56:19.654Z,60.60
2019-04-07T15:58:52.838Z,79.60
2019-04-07T16:01:24.894Z,85.30
2019-04-07T16:03:54.893Z,96.10
2019-04-07T16:06:25.958Z,99.40
2019-04-07T16:08:57.306Z,94.30
2019-04-07T16:11:29.087Z,56.30
2019-04-07T16:13:57.238Z,91.20
2019-04-07T16:16:28.492Z,97.30
2019-04-07T16:18:57.735Z,97.40
2019-04-07T16:21:28.772Z,68.20
2019-04-07T16:23:59.230Z,61.20
2019-04-07T16:26:31.133Z,65.00
2019-04-07T16:29:01.263Z,99.00
2019-04-07T16:31:35.101Z,99.90
2019-04-07T16:34:08.755Z,99.90
2019-04-07T16:36:43.712Z,93.50
2019-04-07T16:39:16.692Z,98.50
2019-04-07T16:42:03.132Z,99.90
2019-04-07T16:44:36.814Z,99.90
2019-04-07T16:47:17.232Z,94.70
2019-04-07T16:49:38.191Z,72.80
2019-04-07T16:52:07.596Z,99.90
2019-04-07T16:54:43.516Z,99.90
2019-04-07T16:57:11.337Z,99.90
2019-04-07T16:59:42.813Z,99.90
2019-04-07T17:02:13.628Z,99.90
2019-04-07T17:04:43.121Z,99.90
2019-04-07T17:07:15.281Z,99.90
2019-04-07T17:09:44.685Z,99.90
2019-04-07T17:12:13.922Z,99.90
2019-04-07T17:14:44.841Z,99.90
2019-04-07T17:17:19.054Z,99.90
2019-04-07T17:19:45.707Z,99.90
2019-04-07T17:22:16.728Z,99.90
2019-04-07T17:24:48.458Z,99.90
2019-04-07T17:27:19.382Z,99.90
2019-04-07T17:29:55.462Z,99.90
2019-04-07T17:32:25.924Z,99.90
2019-04-07T17:34:56.328Z,99.90
2019-04-07T17:37:28.329Z,99.90
2019-04-07T17:40:04.477Z,99.90
2019-04-07T17:42:33.716Z,99.90
2019-04-07T17:45:21.277Z,99.90
2019-04-07T17:48:09.990Z,99.90
2019-04-07T17:51:08.713Z,99.90
2019-04-07T17:54:00.706Z,99.90
2019-04-07T17:56:53.787Z,99.90
2019-04-07T17:59:47.171Z,99.90
2019-04-07T18:02:32.299Z,99.90
2019-04-07T18:05:24.267Z,99.90
2019-04-07T18:08:13.083Z,99.90
2019-04-07T18:11:00.094Z,99.90
2019-04-07T18:13:57.591Z,99.90
2019-04-07T18:16:44.655Z,99.90
2019-04-07T18:19:48.516Z,99.90
2019-04-07T18:22:56.970Z,99.90
2019-04-07T18:25:45.849Z,99.90
2019-04-07T18:28:39.193Z,99.90
2019-04-07T18:31:36.176Z,99.90
2019-04-07T18:34:34.143Z,99.90
2019-04-07T18:37:12.959Z,99.90
2019-04-07T18:40:14.390Z,99.90
2019-04-07T18:42:56.399Z,99.90
2019-04-07T18:45:32.495Z,99.90
2019-04-07T18:48:22.760Z,99.90
2019-04-07T18:51:13.215Z,99.90
2019-04-07T18:54:05.377Z,99.90
2019-04-07T18:56:50.649Z,99.90
2019-04-07T18:59:36.858Z,99.90
2019-04-07T19:02:24.796Z,99.90
2019-04-07T19:05:08.223Z,99.90
2019-04-07T19:07:53.716Z,99.90
2019-04-07T19:10:36.708Z,99.90
2019-04-07T19:13:24.719Z,99.90
2019-04-07T19:16:27.626Z,99.90
2019-04-07T19:19:15.006Z,99.90
2019-04-07T19:22:20.079Z,99.90
2019-04-07T19:25:14.484Z,99.90
2019-04-07T19:28:07.883Z,99.90
2019-04-07T19:30:58.037Z,99.90
2019-04-07T19:33:47.514Z,99.90
2019-04-07T19:36:49.942Z,99.90
2019-04-07T19:39:53.566Z,99.90
2019-04-07T19:42:39.820Z,99.90
2019-04-07T19:45:33.452Z,99.90
2019-04-07T19:48:36.455Z,99.90
2019-04-07T19:51:30.688Z,99.90
2019-04-07T19:54:13.606Z,99.90
2019-04-07T19:57:09.253Z,99.90
2019-04-07T20:00:00.548Z,99.90
2019-04-07T20:02:55.541Z,99.90
2019-04-07T20:05:37.290Z,99.90
2019-04-07T20:08:34.511Z,99.90
2019-04-07T20:11:37.519Z,99.90
2019-04-07T20:14:28.612Z,99.90
2019-04-07T20:17:16.412Z,99.90
2019-04-07T20:20:14.849Z,99.90
2019-04-07T20:23:21.669Z,99.90
2019-04-07T20:26:11.182Z,99.90
2019-04-07T20:28:46.460Z,99.90
2019-04-07T20:31:37.565Z,99.90
2019-04-07T20:34:15.137Z,99.90
2019-04-07T20:37:05.409Z,99.90
2019-04-07T20:40:04.350Z,99.90
2019-04-07T20:43:07.777Z,99.90
2019-04-07T20:46:04.586Z,99.90
2019-04-07T20:48:45.515Z,99.90
2019-04-07T20:51:25.379Z,99.90
2019-04-07T20:54:12.608Z,99.90
2019-04-07T20:57:19.659Z,99.90
2019-04-07T21:00:14.347Z,99.90
2019-04-07T21:03:14.122Z,99.90
2019-04-07T21:05:44.271Z,99.90
2019-04-07T21:08:31.747Z,99.90
2019-04-07T21:11:27.933Z,99.90
2019-04-07T21:14:28.403Z,99.90
2019-04-07T21:17:25.836Z,99.90
2019-04-07T21:20:14.537Z,99.90
2019-04-07T21:23:09.232Z,99.90
2019-04-07T21:25:49.064Z,99.90
2019-04-07T21:28:38.089Z,99.90
2019-04-07T21:31:27.033Z,99.90
2019-04-07T21:34:26.937Z,99.90
2019-04-07T21:37:17.437Z,99.90
2019-04-07T21:39:56.849Z,99.90
2019-04-07T21:42:43.777Z,99.90
2019-04-07T21:45:45.680Z,99.90
2019-04-07T21:48:30.602Z,99.90
2019-04-07T21:51:31.100Z,99.90
2019-04-07T21:54:28.115Z,99.90
2019-04-07T21:57:17.884Z,99.90
2019-04-07T22:00:06.612Z,99.90
2019-04-07T22:03:08.775Z,99.90
2019-04-07T22:05:49.130Z,99.90
2019-04-07T22:08:27.273Z,99.90
2019-04-07T22:10:58.229Z,99.90
2019-04-07T22:13:28.682Z,99.90
2019-04-07T22:16:01.587Z,99.90
2019-04-07T22:18:30.972Z,99.90
2019-04-07T22:21:03.368Z,99.90
2019-04-07T22:23:33.759Z,99.90
2019-04-07T22:26:02.924Z,99.90
2019-04-07T22:28:32.034Z,99.90
2019-04-07T22:31:01.516Z,99.90
2019-04-07T22:33:32.430Z,99.90
2019-04-07T22:36:03.951Z,99.90
2019-04-07T22:38:48.555Z,99.90
2019-04-07T22:41:17.793Z,99.90
2019-04-07T22:43:49.528Z,99.90
2019-04-07T22:46:23.477Z,99.90
2019-04-07T22:48:50.254Z,99.90
2019-04-07T22:51:19.609Z,99.90
2019-04-07T22:53:55.671Z,99.90
2019-04-07T22:56:22.342Z,99.90
2019-04-07T22:58:52.000Z,99.90
2019-04-07T23:01:22.961Z,99.90
2019-04-07T23:03:54.728Z,99.90
2019-04-07T23:06:26.582Z,99.90
2019-04-07T23:08:56.075Z,99.90
2019-04-07T23:11:26.740Z,99.90
2019-04-07T23:13:55.989Z,99.90
2019-04-07T23:16:31.720Z,99.90
2019-04-07T23:18:56.571Z,99.90
2019-04-07T23:21:26.786Z,99.90
2019-04-07T23:23:56.174Z,99.90
2019-04-07T23:26:29.836Z,99.90
2019-04-07T23:29:00.952Z,99.90
2019-04-07T23:31:32.492Z,99.90
2019-04-07T23:34:06.303Z,99.90
2019-04-07T23:36:38.262Z,99.90
2019-04-07T23:39:07.725Z,99.90
2019-04-07T23:41:37.276Z,99.90
2019-04-07T23:44:07.322Z,99.90
2019-04-07T23:46:39.370Z,99.90
2019-04-07T23:49:10.028Z,99.90
2019-04-07T23:51:41.417Z,99.90
2019-04-07T23:54:14.838Z,99.90
2019-04-07T23:56:51.885Z,99.90
2019-04-07T23:59:21.436Z,99.90
